Time;durP1;ratioP1;P1;durP2;ratioP2;P2;SDS_P1;SDS_P2;PMS_P1;PMS_P2;Temp;Humidity;BMP_temperature;BMP_pressure;BME280_temperature;BME280_humidity;BME280_pressure;Samples;Min_cycle;Max_cycle;Signal;HPM_P1;HPM_P2
2022/02/17 00:01:34;;;;;;;28.17;23.45;;;;;;;13.22;57.88;98861.77;1729464;82;21521;-64
2022/02/17 00:04:00;;;;;;;27.27;22.55;;;;;;;13.20;57.87;98858.50;1738157;81;21034;-63
2022/02/17 00:06:28;;;;;;;28.80;23.27;;;;;;;13.18;57.83;98858.17;1741101;80;21530;-63
2022/02/17 00:08:55;;;;;;;27.42;21.93;;;;;;;13.17;57.82;98857.04;1735325;82;21029;-65
2022/02/17 00:11:21;;;;;;;26.55;21.42;;;;;;;13.16;57.77;98854.08;1722020;81;21042;-64
2022/02/17 00:13:48;;;;;;;28.83;23.27;;;;;;;13.14;57.76;98844.95;1741133;82;22021;-66
2022/02/17 00:16:16;;;;;;;30.23;24.35;;;;;;;13.15;57.76;98837.77;1742625;81;21500;-65
2022/02/17 00:18:43;;;;;;;26.57;22.20;;;;;;;13.13;57.71;98832.66;1729835;82;21082;-64
2022/02/17 00:21:12;;;;;;;29.30;23.02;;;;;;;13.12;57.71;98819.53;1733271;81;21026;-65
2022/02/17 00:23:40;;;;;;;27.15;22.50;;;;;;;13.11;57.66;98824.02;1740192;82;21034;-65
2022/02/17 00:26:07;;;;;;;27.52;21.87;;;;;;;13.10;57.63;98824.25;1744177;80;21092;-65
2022/02/17 00:28:34;;;;;;;34.08;23.52;;;;;;;13.09;57.61;98819.41;1729967;81;21656;-63
2022/02/17 00:31:02;;;;;;;29.00;23.35;;;;;;;13.08;57.61;98818.30;1708782;82;21046;-64
2022/02/17 00:33:29;;;;;;;28.55;23.25;;;;;;;13.07;57.59;98815.31;1729166;82;21089;-65
2022/02/17 00:35:55;;;;;;;27.07;23.27;;;;;;;13.05;57.58;98799.52;1738759;82;21625;-65
2022/02/17 00:38:22;;;;;;;26.02;22.45;;;;;;;13.04;57.54;98792.56;1738402;82;21426;-65
2022/02/17 00:40:48;;;;;;;27.87;22.42;;;;;;;13.03;57.53;98794.91;1747440;81;21538;-65
2022/02/17 00:43:15;;;;;;;26.70;22.70;;;;;;;13.02;57.48;98783.95;1743098;80;20975;-65
2022/02/17 00:45:42;;;;;;;28.25;22.50;;;;;;;13.01;57.49;98774.30;1732581;82;21596;-65
2022/02/17 00:48:08;;;;;;;28.35;22.42;;;;;;;13.00;57.47;98780.68;1739100;82;21559;-65
2022/02/17 00:50:37;;;;;;;26.77;22.20;;;;;;;12.99;57.46;98781.17;1737053;81;22174;-65
2022/02/17 00:53:04;;;;;;;25.88;21.85;;;;;;;12.98;57.44;98769.41;1728483;82;21083;-65
2022/02/17 00:55:30;;;;;;;25.10;20.88;;;;;;;12.97;57.41;98771.75;1736058;81;21344;-64
2022/02/17 00:57:57;;;;;;;28.17;22.70;;;;;;;12.96;57.39;98762.09;1730182;81;21057;-64
2022/02/17 01:00:24;;;;;;;27.90;22.75;;;;;;;12.95;57.40;98755.14;1734911;82;21625;-65
2022/02/17 01:02:53;;;;;;;26.12;22.07;;;;;;;12.94;57.39;98747.67;1647784;85;21916;-65
2022/02/17 01:05:20;;;;;;;28.00;22.58;;;;;;;12.93;57.36;98735.87;1725438;82;21143;-65
2022/02/17 01:07:47;;;;;;;27.87;22.93;;;;;;;12.92;57.35;98727.56;1727111;82;21023;-65
2022/02/17 01:10:14;;;;;;;25.72;21.33;;;;;;;12.90;57.33;98712.28;1732343;82;21030;-64
2022/02/17 01:12:41;;;;;;;26.70;22.10;;;;;;;12.90;57.29;98717.62;1724312;82;21558;-65
2022/02/17 01:15:09;;;;;;;27.58;22.77;;;;;;;12.88;57.29;98711.67;1720575;81;21306;-64
2022/02/17 01:17:36;;;;;;;27.10;22.20;;;;;;;12.89;57.29;98706.67;1731603;81;21030;-64
2022/02/17 01:20:06;;;;;;;25.12;21.10;;;;;;;12.88;57.26;98706.34;1736914;82;21011;-66
2022/02/17 01:22:34;;;;;;;26.87;22.65;;;;;;;12.87;57.25;98704.73;1725481;82;21054;-66
2022/02/17 01:25:00;;;;;;;28.05;21.85;;;;;;;12.86;57.24;98692.41;1726384;81;21022;-65
2022/02/17 01:27:27;;;;;;;26.97;22.27;;;;;;;12.84;57.23;98699.28;1739867;82;21832;-65
2022/02/17 01:29:54;;;;;;;27.95;22.32;;;;;;;12.86;57.22;98693.75;1738989;80;21049;-66
2022/02/17 01:32:21;;;;;;;26.60;21.52;;;;;;;12.83;57.21;98678.19;1694548;82;21037;-66
2022/02/17 01:34:48;;;;;;;24.05;21.10;;;;;;;12.82;57.19;98672.02;1748477;81;21011;-66
2022/02/17 01:37:14;;;;;;;25.55;21.42;;;;;;;12.81;57.18;98665.59;1746999;81;20984;-65
2022/02/17 01:39:41;;;;;;;24.47;21.68;;;;;;;12.81;57.17;98661.06;1756166;81;21194;-66
2022/02/17 01:42:09;;;;;;;24.72;21.97;;;;;;;12.79;57.16;98658.60;1756726;81;21054;-66
2022/02/17 01:44:35;;;;;;;24.87;21.20;;;;;;;12.79;57.14;98644.47;1745773;80;20987;-66
2022/02/17 01:47:12;;;;;;;24.45;20.97;;;;;;;12.78;57.14;98642.30;1756356;80;21073;-66
2022/02/17 01:49:41;;;;;;;26.20;22.17;;;;;;;12.78;57.15;98646.81;1749683;80;21671;-66
2022/02/17 01:52:09;;;;;;;25.23;21.40;;;;;;;12.76;57.13;98637.69;1751039;81;21097;-66
2022/02/17 01:54:38;;;;;;;26.42;21.87;;;;;;;12.76;57.11;98632.36;1748194;80;21026;-66
2022/02/17 01:57:08;;;;;;;25.27;22.50;;;;;;;12.76;57.10;98639.02;1753010;81;21553;-65
2022/02/17 01:59:35;;;;;;;24.52;20.55;;;;;;;12.75;57.10;98621.94;1754125;81;21061;-67
2022/02/17 02:02:05;;;;;;;24.12;20.70;;;;;;;12.74;57.10;98611.77;1756309;81;21063;-67
2022/02/17 02:04:32;;;;;;;25.12;20.23;;;;;;;12.74;57.08;98604.30;1749236;80;21123;-66
2022/02/17 02:07:00;;;;;;;23.85;20.40;;;;;;;12.73;57.06;98604.81;1770150;80;21514;-67
2022/02/17 02:09:27;;;;;;;26.77;22.02;;;;;;;12.72;57.07;98599.17;1752052;81;21065;-66
2022/02/17 02:12:09;;;;;;;25.65;21.73;;;;;;;12.71;57.05;98597.55;1755231;81;21546;-66
2022/02/17 02:14:36;;;;;;;22.67;20.05;;;;;;;12.70;57.04;98583.91;1752963;81;21046;-67
2022/02/17 02:17:04;;;;;;;24.92;21.27;;;;;;;12.70;57.05;98583.91;1751021;81;21081;-65
2022/02/17 02:19:30;;;;;;;24.52;20.62;;;;;;;12.70;57.00;98576.44;1753555;81;21609;-65
2022/02/17 02:21:58;;;;;;;24.18;20.62;;;;;;;12.68;57.02;98569.16;1751180;81;21003;-66
2022/02/17 02:24:25;;;;;;;26.42;21.60;;;;;;;12.68;56.99;98565.98;1745720;80;20994;-66
2022/02/17 02:26:51;;;;;;;22.70;20.12;;;;;;;12.67;56.96;98563.02;1757567;81;21605;-65
2022/02/17 02:29:26;;;;;;;24.92;22.20;;;;;;;12.66;56.96;98548.05;1684460;84;22108;-65
2022/02/17 02:31:53;;;;;;;22.60;20.15;;;;;;;12.66;56.95;98549.91;1694299;84;21124;-66
2022/02/17 02:34:21;;;;;;;24.35;21.65;;;;;;;12.65;56.95;98542.92;1655931;84;21089;-64
2022/02/17 02:36:48;;;;;;;22.30;19.90;;;;;;;12.63;56.95;98544.47;1706105;83;21050;-66
2022/02/17 02:39:14;;;;;;;24.27;20.82;;;;;;;12.64;56.93;98552.78;1695520;82;21058;-65
2022/02/17 02:41:44;;;;;;;23.75;20.62;;;;;;;12.63;56.92;98552.45;1678951;84;21592;-66
2022/02/17 02:44:11;;;;;;;22.40;19.62;;;;;;;12.63;56.91;98559.12;1727151;82;21535;-65
2022/02/17 02:46:39;;;;;;;23.20;20.25;;;;;;;12.62;56.87;98547.37;1726335;81;21506;-66
2022/02/17 02:49:06;;;;;;;22.58;19.70;;;;;;;12.61;56.87;98530.54;1726672;81;21510;-65
2022/02/17 02:51:34;;;;;;;23.05;19.70;;;;;;;12.62;56.85;98534.05;1736152;81;21035;-66
2022/02/17 02:54:01;;;;;;;23.42;19.87;;;;;;;12.61;56.84;98523.88;1744875;81;23159;-67
2022/02/17 02:56:30;;;;;;;22.35;19.85;;;;;;;12.59;56.83;98508.63;1728248;80;21030;-66
2022/02/17 02:58:56;;;;;;;23.25;20.65;;;;;;;12.59;56.83;98511.28;1737261;81;21474;-65
2022/02/17 03:01:24;;;;;;;21.85;19.55;;;;;;;12.58;56.82;98505.15;1719812;82;21054;-66
2022/02/17 03:03:50;;;;;;;23.27;19.57;;;;;;;12.59;56.82;98496.63;1732479;82;21043;-66
2022/02/17 03:06:17;;;;;;;23.83;20.43;;;;;;;12.57;56.80;98495.53;1737488;82;21069;-66
2022/02/17 03:08:44;;;;;;;23.22;20.75;;;;;;;12.56;56.77;98489.89;1734138;82;21053;-67
2022/02/17 03:11:13;;;;;;;22.07;19.67;;;;;;;12.57;56.77;98481.38;1715979;80;21109;-66
2022/02/17 03:13:40;;;;;;;23.00;20.35;;;;;;;12.56;56.76;98477.91;1727954;82;21011;-66
2022/02/17 03:16:07;;;;;;;23.52;21.02;;;;;;;12.55;56.76;98478.11;1741390;81;21035;-66
2022/02/17 03:18:34;;;;;;;23.42;20.60;;;;;;;12.54;56.71;98479.16;1726377;82;21827;-65
2022/02/17 03:21:01;;;;;;;22.80;20.30;;;;;;;12.53;56.73;98482.31;1737362;81;21650;-66
2022/02/17 03:23:27;;;;;;;24.00;21.42;;;;;;;12.53;56.73;98473.51;1743083;82;20987;-66
2022/02/17 03:25:57;;;;;;;22.60;20.10;;;;;;;12.52;56.71;98465.23;1739553;81;21358;-66
2022/02/17 03:28:23;;;;;;;23.80;21.25;;;;;;;12.51;56.71;98480.38;1730352;80;20995;-67
2022/02/17 03:30:52;;;;;;;23.15;19.85;;;;;;;12.51;56.70;98471.57;1732164;81;21038;-65
2022/02/17 03:33:19;;;;;;;23.00;20.05;;;;;;;12.51;56.67;98460.39;1743217;82;21067;-66
2022/02/17 03:35:47;;;;;;;22.45;20.05;;;;;;;12.51;56.66;98468.91;1722910;82;21041;-67
2022/02/17 03:38:15;;;;;;;23.90;21.17;;;;;;;12.50;56.67;98463.30;1728185;82;21062;-67
2022/02/17 03:40:43;;;;;;;24.25;20.65;;;;;;;12.50;56.68;98471.28;1741278;82;21542;-66
2022/02/17 03:43:12;;;;;;;23.50;20.52;;;;;;;12.49;56.66;98450.47;1752227;80;20986;-65
2022/02/17 03:45:38;;;;;;;22.02;19.65;;;;;;;12.49;56.64;98449.66;1722335;82;21527;-65
2022/02/17 03:50:05;;;;;;;23.73;21.12;;;;;;;12.51;56.66;98452.92;1886015;76;28028;-65
2022/02/17 03:52:34;;;;;;;23.42;20.82;;;;;;;12.48;56.64;98450.18;1820031;77;21529;-65
2022/02/17 03:55:12;;;;;;;22.25;19.85;;;;;;;12.49;56.63;98440.34;1840807;77;21131;-67
2022/02/17 03:57:40;;;;;;;23.00;20.48;;;;;;;12.46;56.61;98437.59;1852569;77;21021;-67
2022/02/17 04:00:08;;;;;;;24.92;21.23;;;;;;;12.47;56.61;98451.72;1838131;76;20997;-66
2022/02/17 04:02:37;;;;;;;22.87;20.48;;;;;;;12.46;56.60;98443.41;1819563;78;21505;-66
2022/02/17 04:05:05;;;;;;;24.77;21.80;;;;;;;12.45;56.60;98437.27;1835974;75;20918;-65
2022/02/17 04:07:34;;;;;;;24.55;21.68;;;;;;;12.44;56.58;98421.50;1855630;77;21075;-66
2022/02/17 04:10:04;;;;;;;25.02;21.68;;;;;;;12.45;56.60;98423.95;1834374;77;20925;-65
2022/02/17 04:12:32;;;;;;;23.75;21.17;;;;;;;12.44;56.59;98424.16;1857257;77;20945;-66
2022/02/17 04:14:59;;;;;;;24.18;20.80;;;;;;;12.44;56.57;98412.18;1838585;77;21484;-67
2022/02/17 04:17:26;;;;;;;24.47;21.70;;;;;;;12.43;56.56;98411.37;1820135;77;21026;-65
2022/02/17 04:19:54;;;;;;;23.45;20.97;;;;;;;12.43;56.56;98410.56;1817899;77;21129;-66
2022/02/17 04:22:41;;;;;;;24.37;20.97;;;;;;;12.43;56.56;98407.90;1824336;77;22266;-66
2022/02/17 04:25:22;;;;;;;23.85;21.27;;;;;;;12.42;56.56;98394.27;1839055;77;21015;-66
2022/02/17 04:27:48;;;;;;;22.70;20.00;;;;;;;12.40;56.56;98389.17;1854043;77;21036;-68
2022/02/17 04:30:15;;;;;;;23.22;20.70;;;;;;;12.40;56.54;98379.85;1849497;77;21033;-66
2022/02/17 04:32:43;;;;;;;26.50;22.00;;;;;;;12.40;56.56;98381.19;1834302;75;21087;-66
2022/02/17 04:35:11;;;;;;;23.77;20.12;;;;;;;12.39;56.55;98374.20;1835157;77;20990;-66
2022/02/17 04:37:38;;;;;;;24.63;21.95;;;;;;;12.38;56.55;98376.55;1847859;77;21005;-67
2022/02/17 04:40:07;;;;;;;24.45;20.60;;;;;;;12.39;56.54;98368.88;1842627;77;20977;-67
2022/02/17 04:42:37;;;;;;;26.17;22.07;;;;;;;12.38;56.55;98366.74;1837734;77;21486;-66
2022/02/17 04:45:07;;;;;;;23.73;21.10;;;;;;;12.36;56.55;98360.81;1836630;77;22374;-66
2022/02/17 04:47:34;;;;;;;24.70;22.10;;;;;;;12.36;56.54;98355.48;1846635;77;21059;-66
2022/02/17 04:50:00;;;;;;;25.12;21.82;;;;;;;12.36;56.53;98347.50;1819476;77;21433;-65
2022/02/17 04:52:26;;;;;;;24.67;21.80;;;;;;;12.37;56.52;98353.11;1844958;77;21096;-66
2022/02/17 04:54:53;;;;;;;23.60;21.05;;;;;;;12.36;56.53;98348.83;1812241;77;20990;-67
2022/02/17 04:57:21;;;;;;;25.97;22.90;;;;;;;12.36;56.52;98342.17;1857912;77;21481;-65
2022/02/17 04:59:49;;;;;;;23.90;20.82;;;;;;;12.35;56.49;98328.55;1852694;77;20982;-66
2022/02/17 05:02:16;;;;;;;24.27;21.37;;;;;;;12.35;56.50;98336.53;1851383;77;21076;-67
2022/02/17 05:04:47;;;;;;;24.15;21.55;;;;;;;12.35;56.49;98325.07;1846482;77;21470;-64
2022/02/17 05:07:15;;;;;;;27.70;23.00;;;;;;;12.34;56.49;98333.59;1847292;77;21509;-64
2022/02/17 05:09:43;;;;;;;25.57;22.52;;;;;;;12.35;56.49;98322.41;1850485;77;21210;-65
2022/02/17 05:12:10;;;;;;;25.23;21.48;;;;;;;12.34;56.49;98313.61;1847690;77;21005;-65
2022/02/17 05:14:37;;;;;;;23.85;21.20;;;;;;;12.35;56.48;98325.07;1837623;77;20993;-65
2022/02/17 05:17:05;;;;;;;24.32;21.45;;;;;;;12.33;56.46;98305.31;1817945;77;21020;-66
2022/02/17 05:19:32;;;;;;;23.98;21.30;;;;;;;12.34;56.44;98311.44;1859022;77;21497;-66
2022/02/17 05:22:17;;;;;;;24.50;21.15;;;;;;;12.34;56.46;98308.29;1807466;78;21215;-66
2022/02/17 05:25:01;;;;;;;24.80;22.20;;;;;;;12.33;56.44;98297.32;1833327;77;21682;-68
2022/02/17 05:27:46;;;;;;;24.80;22.05;;;;;;;12.33;56.45;98279.20;1845554;77;21020;-68
2022/02/17 05:30:14;;;;;;;27.27;22.52;;;;;;;12.31;56.45;98278.08;1770509;77;21508;-64
2022/02/17 05:32:44;;;;;;;23.45;20.70;;;;;;;12.31;56.45;98278.08;1840827;77;21025;-65
2022/02/17 05:35:16;;;;;;;24.67;21.35;;;;;;;12.30;56.47;98281.76;1844470;77;21084;-64
2022/02/17 05:38:00;;;;;;;25.23;22.48;;;;;;;12.30;56.46;98267.64;1856128;77;20979;-65
2022/02/17 05:40:32;;;;;;;23.47;20.88;;;;;;;12.29;56.47;98279.34;1822753;77;21002;-65
2022/02/17 05:42:58;;;;;;;25.10;22.40;;;;;;;12.28;56.47;98265.70;1839233;77;21030;-66
2022/02/17 05:45:28;;;;;;;24.37;21.75;;;;;;;12.28;56.47;98258.53;1788186;80;21002;-65
2022/02/17 05:47:57;;;;;;;25.62;22.07;;;;;;;12.27;56.48;98249.45;1818505;78;21963;-65
2022/02/17 05:50:24;;;;;;;24.10;21.50;;;;;;;12.28;56.48;98239.08;1763814;79;21065;-64
2022/02/17 05:52:52;;;;;;;24.25;21.65;;;;;;;12.27;56.47;98244.12;1849021;77;21049;-66
2022/02/17 05:55:19;;;;;;;23.38;20.80;;;;;;;12.27;56.47;98242.27;1853976;76;21446;-65
2022/02/17 05:57:47;;;;;;;24.12;21.40;;;;;;;12.28;56.46;98251.06;1844004;77;21010;-66
2022/02/17 06:00:16;;;;;;;25.25;21.40;;;;;;;12.28;56.45;98256.39;1847763;77;21112;-66
2022/02/17 06:02:43;;;;;;;24.63;21.68;;;;;;;12.27;56.42;98228.95;1822678;77;21033;-66
2022/02/17 06:05:10;;;;;;;25.02;21.55;;;;;;;12.28;56.42;98239.89;1802786;77;21046;-65
2022/02/17 06:07:37;;;;;;;24.27;21.07;;;;;;;12.29;56.42;98246.05;1803901;77;21591;-65
2022/02/17 06:10:06;;;;;;;24.90;22.10;;;;;;;12.30;56.39;98242.34;1846012;77;21056;-65
2022/02/17 06:12:35;;;;;;;22.32;16.73;;;;;;;12.30;56.37;98237.83;1832219;77;21103;-67
2022/02/17 06:15:01;;;;;;;23.80;16.87;;;;;;;12.33;63.15;98226.75;1786061;77;21093;-68
2022/02/17 06:17:28;;;;;;;20.10;17.07;;;;;;;12.41;63.25;98229.67;1794186;77;21025;-67
2022/02/17 06:19:54;;;;;;;20.77;17.07;;;;;;;12.44;63.65;98230.58;1835231;77;21102;-68
2022/02/17 06:22:21;;;;;;;21.57;17.10;;;;;;;12.45;64.34;98232.19;1846364;77;20990;-67
2022/02/17 06:24:48;;;;;;;20.30;16.95;;;;;;;12.47;64.53;98235.98;1850884;76;21125;-68
2022/02/17 06:27:14;;;;;;;20.45;17.52;;;;;;;12.46;64.41;98207.20;1845871;77;21003;-67
2022/02/17 06:29:40;;;;;;;21.10;18.07;;;;;;;12.46;64.22;98213.86;1850359;77;21658;-67
2022/02/17 06:32:08;;;;;;;21.73;17.77;;;;;;;12.47;63.95;98204.02;1843171;77;21018;-66
2022/02/17 06:34:34;;;;;;;22.15;17.62;;;;;;;12.46;63.65;98192.55;1812433;77;21010;-64
2022/02/17 06:37:00;;;;;;;23.38;18.23;;;;;;;12.47;63.35;98183.52;1847769;77;21082;-65
2022/02/17 06:39:27;;;;;;;21.45;18.67;;;;;;;12.47;63.07;98177.38;1856611;77;21054;-64
2022/02/17 06:41:54;;;;;;;20.12;18.02;;;;;;;12.47;62.78;98184.04;1822400;77;21045;-65
2022/02/17 06:44:20;;;;;;;21.27;17.98;;;;;;;12.47;62.47;98172.05;1820145;77;21560;-65
2022/02/17 06:46:48;;;;;;;24.00;19.65;;;;;;;12.47;62.21;98182.70;1853692;77;21508;-66
2022/02/17 06:49:14;;;;;;;20.95;18.67;;;;;;;12.46;61.97;98184.56;1849220;77;21131;-66
2022/02/17 06:51:41;;;;;;;24.12;19.20;;;;;;;12.46;61.74;98177.06;1846426;77;21518;-65
2022/02/17 06:54:07;;;;;;;21.82;18.20;;;;;;;12.45;61.48;98173.59;1845905;77;21196;-65
2022/02/17 06:56:34;;;;;;;22.42;17.90;;;;;;;12.46;61.30;98177.06;1810090;77;21007;-64
2022/02/17 06:59:03;;;;;;;21.42;18.87;;;;;;;12.46;61.09;98171.25;1802851;79;21013;-66
2022/02/17 07:01:30;;;;;;;20.88;18.67;;;;;;;12.45;60.92;98177.59;1803100;79;21119;-65
2022/02/17 07:03:56;;;;;;;20.52;18.30;;;;;;;12.45;60.74;98156.29;1821486;77;21066;-64
2022/02/17 07:06:23;;;;;;;22.50;19.40;;;;;;;12.46;60.59;98153.09;1846607;77;21447;-65
2022/02/17 07:08:51;;;;;;;21.95;18.62;;;;;;;12.45;60.42;98140.30;1824049;77;21072;-66
2022/02/17 07:11:18;;;;;;;23.52;19.02;;;;;;;12.45;60.29;98144.30;1820902;77;21057;-64
2022/02/17 07:13:46;;;;;;;21.37;18.67;;;;;;;12.45;60.15;98132.31;1790172;79;21176;-65
2022/02/17 07:16:12;;;;;;;22.30;18.95;;;;;;;12.45;60.04;98132.31;1843908;77;20994;-67
2022/02/17 07:18:42;;;;;;;21.93;19.12;;;;;;;12.45;59.92;98111.02;1824239;77;21528;-65
2022/02/17 07:21:10;;;;;;;21.77;19.15;;;;;;;12.45;59.80;98111.53;1824066;77;21021;-66
2022/02/17 07:23:37;;;;;;;21.12;18.55;;;;;;;12.45;59.71;98107.02;1846890;77;21009;-65
2022/02/17 07:26:03;;;;;;;22.00;19.12;;;;;;;12.45;59.60;98100.88;1826939;77;21174;-65
2022/02/17 07:28:29;;;;;;;23.67;19.92;;;;;;;12.46;59.52;98070.53;1838842;77;21505;-65
2022/02/17 07:30:57;;;;;;;23.07;19.35;;;;;;;12.45;59.42;98080.91;1845352;77;21025;-65
2022/02/17 07:33:24;;;;;;;22.52;20.08;;;;;;;12.44;59.35;98066.78;1802688;79;21033;-65
2022/02/17 07:35:50;;;;;;;22.13;19.15;;;;;;;12.45;59.25;98061.74;1785141;78;21115;-65
2022/02/17 07:38:17;;;;;;;22.65;20.17;;;;;;;12.45;59.21;98045.77;1825057;77;21083;-65
2022/02/17 07:40:45;;;;;;;23.95;19.85;;;;;;;12.47;59.12;98038.89;1847026;77;21459;-66
2022/02/17 07:43:12;;;;;;;25.55;20.97;;;;;;;12.46;59.07;98027.43;1847617;77;21033;-66
2022/02/17 07:45:38;;;;;;;24.20;20.32;;;;;;;12.47;59.00;98020.25;1847553;77;21057;-66
2022/02/17 07:48:05;;;;;;;25.40;20.15;;;;;;;12.48;58.93;98016.03;1813613;77;21002;-66
2022/02/17 07:50:32;;;;;;;22.80;20.40;;;;;;;12.49;58.87;98011.52;1816164;78;21744;-66
2022/02/17 07:52:59;;;;;;;23.62;20.00;;;;;;;12.50;58.83;98013.16;1821758;77;21049;-66
2022/02/17 07:55:27;;;;;;;22.85;19.20;;;;;;;12.51;58.76;98018.77;1835590;77;21513;-65
2022/02/17 07:57:55;;;;;;;22.93;20.20;;;;;;;12.50;58.73;98006.50;1830801;78;21526;-65
2022/02/17 08:00:21;;;;;;;22.37;19.42;;;;;;;12.53;58.66;98036.66;1784192;79;21128;-65
2022/02/17 08:02:48;;;;;;;24.55;19.87;;;;;;;12.54;58.62;98027.66;1789929;79;21119;-66
2022/02/17 08:05:15;;;;;;;24.25;20.43;;;;;;;12.55;58.56;98032.73;1830658;78;21022;-65
2022/02/17 08:07:41;;;;;;;23.73;20.60;;;;;;;12.58;58.49;98040.81;1823956;78;21034;-66
2022/02/17 08:10:09;;;;;;;21.87;18.90;;;;;;;12.60;58.44;98029.42;1819818;78;21068;-66
2022/02/17 08:12:43;;;;;;;21.93;19.55;;;;;;;12.62;58.37;98039.33;1763477;78;21021;-66
2022/02/17 08:15:11;;;;;;;23.85;21.10;;;;;;;12.63;58.30;98022.82;1799798;79;21544;-65
2022/02/17 08:17:39;;;;;;;23.05;20.02;;;;;;;12.65;58.25;98018.08;1830147;78;21522;-66
2022/02/17 08:20:10;;;;;;;23.50;20.25;;;;;;;12.65;58.22;98000.27;1839130;77;21056;-65
2022/02/17 08:22:37;;;;;;;23.15;20.37;;;;;;;12.67;58.16;97994.20;1839069;77;21045;-66
2022/02/17 08:25:04;;;;;;;23.70;20.88;;;;;;;12.68;58.10;97994.48;1823182;78;20974;-65
2022/02/17 08:27:34;;;;;;;25.43;19.60;;;;;;;12.70;58.03;97981.73;1815236;78;20997;-64
2022/02/17 08:30:01;;;;;;;22.13;19.73;;;;;;;12.73;57.99;97985.83;1808877;78;21523;-65
2022/02/17 08:32:35;;;;;;;23.40;20.90;;;;;;;12.75;57.95;97965.09;1812691;78;20999;-68
2022/02/17 08:35:01;;;;;;;24.25;19.30;;;;;;;12.76;57.90;97964.84;1824578;77;20998;-67
2022/02/17 08:37:28;;;;;;;25.60;20.00;;;;;;;12.79;57.86;97937.77;1840494;77;21069;-66
2022/02/17 08:39:54;;;;;;;22.10;19.15;;;;;;;12.83;57.79;97942.66;1837197;77;21134;-65
2022/02/17 08:42:21;;;;;;;22.90;19.40;;;;;;;12.87;57.75;97935.83;1801537;78;21015;-66
2022/02/17 08:44:48;;;;;;;23.60;19.98;;;;;;;12.89;57.70;97928.41;1836877;78;21025;-66
2022/02/17 08:47:17;;;;;;;22.90;19.67;;;;;;;12.93;57.63;97924.25;1835839;78;21509;-64
2022/02/17 08:49:42;;;;;;;23.55;20.97;;;;;;;12.96;57.58;97934.44;1840465;77;21029;-66
2022/02/17 08:52:09;;;;;;;22.40;20.00;;;;;;;12.99;57.53;97922.00;1825989;77;21052;-66
2022/02/17 08:54:36;;;;;;;22.40;20.08;;;;;;;13.02;57.46;97926.89;1821070;77;21072;-66
2022/02/17 08:57:04;;;;;;;22.35;19.95;;;;;;;13.07;57.42;97934.19;1856723;77;21501;-66
2022/02/17 08:59:31;;;;;;;22.55;19.73;;;;;;;13.10;57.37;97930.55;1855142;77;21038;-66
2022/02/17 09:01:57;;;;;;;22.25;19.32;;;;;;;13.14;57.31;97931.72;1856762;77;21064;-66
2022/02/17 09:04:23;;;;;;;22.93;20.05;;;;;;;13.17;57.26;97923.77;1854986;77;21111;-65
2022/02/17 09:06:50;;;;;;;22.50;19.95;;;;;;;13.20;57.23;97910.52;1811977;79;21033;-66
2022/02/17 09:09:19;;;;;;;22.25;19.50;;;;;;;13.22;57.17;97900.44;1816116;79;20994;-65
2022/02/17 09:11:45;;;;;;;21.82;19.17;;;;;;;13.23;57.13;97908.71;1815941;79;20994;-66
2022/02/17 09:14:12;;;;;;;24.07;18.37;;;;;;;13.25;57.08;97887.96;1786341;79;21080;-65
2022/02/17 09:16:38;;;;;;;20.95;17.95;;;;;;;13.25;57.05;97882.13;1777952;80;21552;-65
2022/02/17 09:19:05;;;;;;;20.52;18.42;;;;;;;13.25;57.00;97878.12;1777092;79;21049;-66
2022/02/17 09:21:31;;;;;;;21.60;19.20;;;;;;;13.27;56.97;97879.20;1775529;79;21148;-66
2022/02/17 09:24:00;;;;;;;22.27;19.23;;;;;;;13.28;56.90;97866.17;1802490;79;21521;-65
2022/02/17 09:26:29;;;;;;;22.87;19.57;;;;;;;13.28;56.87;97860.84;1805742;79;21029;-66
2022/02/17 09:28:54;;;;;;;21.40;19.10;;;;;;;13.28;56.82;97834.18;1786535;79;21378;-64
2022/02/17 09:31:23;;;;;;;21.87;19.57;;;;;;;13.23;56.80;97840.22;1816478;78;20982;-67
2022/02/17 09:33:50;;;;;;;21.00;18.73;;;;;;;13.29;56.81;97843.78;1815132;79;21005;-67
2022/02/17 09:36:31;;;;;;;22.22;19.65;;;;;;;13.29;56.76;97829.12;1816181;79;21017;-68
2022/02/17 09:39:00;;;;;;;21.20;18.95;;;;;;;13.28;56.74;97804.31;1811721;77;21026;-66
2022/02/17 09:41:27;;;;;;;19.87;17.77;;;;;;;13.28;56.69;97811.52;1815788;79;21140;-66
2022/02/17 09:44:05;;;;;;;23.92;19.95;;;;;;;13.28;56.69;97804.31;1815783;79;21037;-66
2022/02/17 09:46:33;;;;;;;21.35;19.05;;;;;;;13.27;56.69;97797.38;1788862;79;21657;-66
2022/02/17 09:49:02;;;;;;;24.02;19.48;;;;;;;13.26;56.65;97789.61;1815662;79;20983;-65
2022/02/17 09:51:31;;;;;;;20.37;17.92;;;;;;;13.27;56.63;97784.55;1765192;80;21058;-65
2022/02/17 09:53:58;;;;;;;21.77;19.42;;;;;;;13.26;56.61;97773.08;1803323;77;21936;-66
2022/02/17 09:56:24;;;;;;;23.47;19.82;;;;;;;13.26;56.61;97758.94;1845484;77;21030;-65
2022/02/17 09:58:52;;;;;;;21.68;19.45;;;;;;;13.26;56.58;97750.41;1843195;77;21497;-65
2022/02/17 10:01:23;;;;;;;21.97;19.37;;;;;;;13.27;56.57;97745.38;1839864;77;21107;-64
2022/02/17 10:03:50;;;;;;;22.00;17.95;;;;;;;13.28;56.52;97735.52;1817388;77;21017;-64
2022/02/17 10:06:17;;;;;;;21.23;18.87;;;;;;;13.31;56.52;97727.09;1847517;77;21026;-65
2022/02/17 10:08:43;;;;;;;21.12;18.92;;;;;;;13.31;56.49;97731.89;1846726;77;21548;-66
2022/02/17 10:11:28;;;;;;;19.95;17.07;;;;;;;13.32;56.47;97728.17;1820206;77;21076;-65
2022/02/17 10:14:16;;;;;;;20.88;18.67;;;;;;;13.33;56.42;97717.80;1841787;77;21053;-64
2022/02/17 10:16:59;;;;;;;21.65;19.12;;;;;;;13.33;56.40;97719.14;1806368;77;21002;-64
2022/02/17 10:19:30;;;;;;;18.82;16.90;;;;;;;13.34;56.35;97702.08;1797173;77;21257;-65
2022/02/17 10:22:15;;;;;;;21.70;19.37;;;;;;;13.34;56.33;97704.73;1846563;77;21088;-63
2022/02/17 10:24:47;;;;;;;19.52;17.48;;;;;;;13.35;56.31;97693.57;1828611;77;20997;-64
2022/02/17 10:27:20;;;;;;;20.37;18.10;;;;;;;13.34;56.30;97698.60;1832977;77;21530;-65
2022/02/17 10:30:09;;;;;;;20.90;18.30;;;;;;;13.34;56.28;97706.08;1782902;79;20986;-65
2022/02/17 10:32:58;;;;;;;19.05;16.93;;;;;;;13.34;56.26;97682.60;1809734;77;21071;-63
2022/02/17 10:35:25;;;;;;;21.35;18.35;;;;;;;13.34;56.26;97670.60;1845241;77;20994;-63
2022/02/17 10:37:58;;;;;;;18.77;16.73;;;;;;;13.34;56.23;97666.60;1811729;77;21564;-64
2022/02/17 10:40:30;;;;;;;19.45;17.42;;;;;;;13.34;56.26;97674.07;1848351;77;21161;-64
2022/02/17 10:43:12;;;;;;;21.48;19.17;;;;;;;13.35;56.22;97662.91;1800637;78;21069;-64
2022/02/17 10:45:41;;;;;;;20.08;17.90;;;;;;;13.35;56.21;97657.57;1845614;77;21132;-64
2022/02/17 10:48:26;;;;;;;20.92;18.70;;;;;;;13.36;56.18;97656.51;1841726;77;21647;-65
2022/02/17 10:51:07;;;;;;;19.20;17.20;;;;;;;13.36;56.17;97650.64;1815898;77;21044;-63
2022/02/17 10:53:45;;;;;;;20.62;18.42;;;;;;;13.37;56.13;97642.94;1859115;77;21079;-65
2022/02/17 10:56:17;;;;;;;19.82;17.73;;;;;;;13.35;56.12;97641.04;1826286;77;21036;-64
2022/02/17 10:58:48;;;;;;;20.32;18.20;;;;;;;13.35;56.10;97623.70;1823889;77;21210;-64
2022/02/17 11:01:16;;;;;;;20.37;17.87;;;;;;;13.34;56.11;97618.60;1858817;77;21029;-65
2022/02/17 11:03:44;;;;;;;19.42;17.32;;;;;;;13.34;56.11;97627.94;1824904;77;21120;-65
2022/02/17 11:06:12;;;;;;;19.52;17.37;;;;;;;13.34;56.08;97613.27;1859042;77;21571;-64
2022/02/17 11:08:43;;;;;;;19.98;17.92;;;;;;;13.34;56.08;97610.60;1854518;77;21056;-64
2022/02/17 11:11:13;;;;;;;18.35;16.45;;;;;;;13.33;56.07;97643.66;1819932;77;21824;-65
2022/02/17 11:13:44;;;;;;;17.87;15.98;;;;;;;13.32;56.07;97594.03;1849506;77;20997;-65
2022/02/17 11:16:11;;;;;;;19.75;16.57;;;;;;;13.32;56.07;97602.03;1798242;77;21070;-65
2022/02/17 11:18:40;;;;;;;18.80;16.42;;;;;;;13.31;56.06;97591.09;1824661;77;21030;-64
2022/02/17 11:21:06;;;;;;;18.80;16.90;;;;;;;13.30;56.04;97593.46;1848579;77;21001;-65
2022/02/17 11:23:36;;;;;;;18.52;16.55;;;;;;;13.29;56.04;97581.13;1846794;77;21131;-64
2022/02/17 11:26:08;;;;;;;17.95;15.83;;;;;;;13.30;56.04;97588.12;1849548;77;21525;-65